SAS1817 LSZH-EDDM
Flight info
| Callsign | SAS1817 |
|---|---|
| Flight time | 0h 31m |
| Altitude | 22000 |
| Route | DEGES3W DEGES Z6 NUNRI/N0392F210 T103 BETOS BETOS1A |
| Aircraft | A320/M-SDE3FGHIRWY/LB1 |
Departure
| Time | 2026-05-04 17:01 |
|---|---|
| Airport | Zürich Airport (LSZH) |
Arrival
| Time | 2026-05-04 17:33 |
|---|---|
| Airport | Munich Airport (EDDM) |
| Time | Latitude | Longitude | Altitude | Speed | Heading |
|---|---|---|---|---|---|
| 2026-05-04 16:55 | 47.45518 | 8.56687 | 1420 ft | 0 kts | 140° |
| 2026-05-04 16:59 | 47.45518 | 8.56689 | 1420 ft | 1 kts | 122° |
| 2026-05-04 17:00 | 47.45568 | 8.56976 | 1421 ft | 3 kts | 69° |
| 2026-05-04 17:00 | 47.45669 | 8.56912 | 1423 ft | 21 kts | 272° |
| 2026-05-04 17:01 | 47.45775 | 8.55427 | 1400 ft | 132 kts | 276° |
| 2026-05-04 17:01 | 47.46014 | 8.52463 | 2529 ft | 145 kts | 278° |
| 2026-05-04 17:02 | 47.46867 | 8.49740 | 3305 ft | 176 kts | 329° |
| 2026-05-04 17:02 | 47.49501 | 8.50436 | 3822 ft | 236 kts | 42° |
| 2026-05-04 17:03 | 47.50407 | 8.52604 | 4181 ft | 264 kts | 72° |
| 2026-05-04 17:03 | 47.50702 | 8.55369 | 4830 ft | 277 kts | 83° |
| 2026-05-04 17:03 | 47.51130 | 8.61063 | 6695 ft | 279 kts | 86° |
| 2026-05-04 17:04 | 47.51513 | 8.66168 | 8175 ft | 283 kts | 86° |
| 2026-05-04 17:04 | 47.52187 | 8.71975 | 9768 ft | 291 kts | 81° |
| 2026-05-04 17:05 | 47.53133 | 8.78074 | 10585 ft | 325 kts | 79° |
| 2026-05-04 17:05 | 47.54218 | 8.85054 | 10877 ft | 370 kts | 79° |
| 2026-05-04 17:06 | 47.55418 | 8.92859 | 11289 ft | 402 kts | 79° |
| 2026-05-04 17:06 | 47.56036 | 8.96879 | 11798 ft | 407 kts | 79° |
| 2026-05-04 17:07 | 47.57297 | 9.05137 | 12875 ft | 415 kts | 79° |
| 2026-05-04 17:07 | 47.57724 | 9.07966 | 13231 ft | 418 kts | 79° |
| 2026-05-04 17:07 | 47.58563 | 9.13561 | 13918 ft | 423 kts | 79° |
| 2026-05-04 17:07 | 47.59199 | 9.17837 | 14375 ft | 427 kts | 79° |
| 2026-05-04 17:08 | 47.59841 | 9.22149 | 14829 ft | 431 kts | 79° |
| 2026-05-04 17:08 | 47.61140 | 9.30895 | 15667 ft | 439 kts | 79° |
| 2026-05-04 17:08 | 47.61797 | 9.35331 | 16086 ft | 442 kts | 79° |
| 2026-05-04 17:09 | 47.62461 | 9.39802 | 16523 ft | 446 kts | 79° |
| 2026-05-04 17:09 | 47.63128 | 9.44311 | 16957 ft | 449 kts | 79° |
| 2026-05-04 17:09 | 47.63799 | 9.48852 | 17409 ft | 452 kts | 79° |
| 2026-05-04 17:10 | 47.65142 | 9.58034 | 18240 ft | 460 kts | 80° |
| 2026-05-04 17:10 | 47.67178 | 9.72086 | 19272 ft | 468 kts | 80° |
| 2026-05-04 17:11 | 47.67861 | 9.76829 | 19621 ft | 471 kts | 80° |
| 2026-05-04 17:11 | 47.68546 | 9.81589 | 19966 ft | 473 kts | 80° |
| 2026-05-04 17:11 | 47.69922 | 9.91182 | 20634 ft | 477 kts | 80° |
| 2026-05-04 17:12 | 47.70611 | 9.96012 | 20962 ft | 479 kts | 80° |
| 2026-05-04 17:12 | 47.71985 | 10.05741 | 21583 ft | 484 kts | 80° |
| 2026-05-04 17:13 | 47.74058 | 10.20464 | 21955 ft | 485 kts | 79° |
| 2026-05-04 17:14 | 47.76079 | 10.34915 | 19840 ft | 469 kts | 80° |
| 2026-05-04 17:14 | 47.76725 | 10.39581 | 19176 ft | 464 kts | 80° |
| 2026-05-04 17:14 | 47.78010 | 10.48899 | 17811 ft | 456 kts | 80° |
| 2026-05-04 17:15 | 47.78637 | 10.53491 | 17134 ft | 451 kts | 81° |
| 2026-05-04 17:15 | 47.79866 | 10.62523 | 15846 ft | 441 kts | 81° |
| 2026-05-04 17:16 | 47.81065 | 10.71377 | 14563 ft | 432 kts | 81° |
| 2026-05-04 17:16 | 47.82793 | 10.84179 | 13287 ft | 403 kts | 81° |
| 2026-05-04 17:17 | 47.83342 | 10.88246 | 12977 ft | 399 kts | 81° |
| 2026-05-04 17:17 | 47.84943 | 11.00321 | 12972 ft | 384 kts | 82° |
| 2026-05-04 17:18 | 47.85628 | 11.04115 | 12919 ft | 379 kts | 69° |
| 2026-05-04 17:18 | 47.89088 | 11.09758 | 11944 ft | 373 kts | 27° |
| 2026-05-04 17:19 | 47.93632 | 11.13402 | 10817 ft | 371 kts | 41° |
| 2026-05-04 17:19 | 47.96479 | 11.19624 | 10012 ft | 360 kts | 64° |
| 2026-05-04 17:20 | 47.98718 | 11.26061 | 9944 ft | 345 kts | 64° |
| 2026-05-04 17:20 | 48.00918 | 11.32407 | 9948 ft | 344 kts | 64° |
| 2026-05-04 17:20 | 48.02064 | 11.35544 | 9946 ft | 345 kts | 56° |
| 2026-05-04 17:21 | 48.05885 | 11.39519 | 9324 ft | 339 kts | 11° |
| 2026-05-04 17:21 | 48.10303 | 11.38373 | 8465 ft | 323 kts | 323° |
| 2026-05-04 17:22 | 48.12026 | 11.36260 | 8009 ft | 319 kts | 315° |
| 2026-05-04 17:22 | 48.13617 | 11.34064 | 7689 ft | 303 kts | 315° |
| 2026-05-04 17:23 | 48.17994 | 11.27830 | 6485 ft | 282 kts | 314° |
| 2026-05-04 17:23 | 48.19389 | 11.25786 | 6124 ft | 280 kts | 314° |
| 2026-05-04 17:23 | 48.22129 | 11.21687 | 5167 ft | 278 kts | 315° |
| 2026-05-04 17:24 | 48.23552 | 11.19760 | 4672 ft | 274 kts | 329° |
| 2026-05-04 17:24 | 48.28557 | 11.20981 | 4007 ft | 262 kts | 47° |
| 2026-05-04 17:25 | 48.29609 | 11.23203 | 4002 ft | 263 kts | 65° |
| 2026-05-04 17:25 | 48.30345 | 11.28548 | 4011 ft | 264 kts | 83° |
| 2026-05-04 17:26 | 48.30792 | 11.34024 | 4013 ft | 264 kts | 83° |
| 2026-05-04 17:26 | 48.31438 | 11.41940 | 4008 ft | 233 kts | 83° |
| 2026-05-04 17:27 | 48.31804 | 11.46453 | 3994 ft | 203 kts | 83° |
| 2026-05-04 17:27 | 48.32119 | 11.50374 | 4018 ft | 176 kts | 83° |
| 2026-05-04 17:28 | 48.32397 | 11.53847 | 4028 ft | 155 kts | 83° |
| 2026-05-04 17:29 | 48.32763 | 11.58499 | 3663 ft | 146 kts | 83° |
| 2026-05-04 17:29 | 48.33120 | 11.63018 | 3115 ft | 144 kts | 83° |
| 2026-05-04 17:30 | 48.33471 | 11.67490 | 2536 ft | 143 kts | 82° |
| 2026-05-04 17:31 | 48.33707 | 11.70501 | 2146 ft | 146 kts | 82° |
| 2026-05-04 17:31 | 48.34064 | 11.75050 | 1557 ft | 146 kts | 81° |
| 2026-05-04 17:32 | 48.34241 | 11.77303 | 1481 ft | 53 kts | 76° |
| 2026-05-04 17:33 | 48.34484 | 11.77876 | 1481 ft | 0 kts | 53° |
| 2026-05-04 17:34 | 48.34486 | 11.77880 | 1481 ft | 0 kts | 53° |
| 2026-05-04 17:35 | 48.34635 | 11.77906 | 1485 ft | 10 kts | 353° |
| 2026-05-04 17:35 | 48.34671 | 11.77900 | 1476 ft | 6 kts | 353° |
| 2026-05-04 17:35 | 48.34713 | 11.77893 | 1473 ft | 9 kts | 353° |
| 2026-05-04 17:36 | 48.34772 | 11.77883 | 1480 ft | 8 kts | 353° |
| 2026-05-04 17:36 | 48.34806 | 11.77877 | 1485 ft | 2 kts | 353° |
| 2026-05-04 17:36 | 48.34817 | 11.77875 | 1478 ft | 1 kts | 353° |
| 2026-05-04 17:36 | 48.34829 | 11.77873 | 1476 ft | 6 kts | 353° |
| 2026-05-04 17:37 | 48.34851 | 11.77869 | 1485 ft | 2 kts | 353° |
| 2026-05-04 17:37 | 48.34859 | 11.77867 | 1485 ft | 0 kts | 353° |